createdAt,value
2019-03-15T00:01:51.470Z,4.70
2019-03-15T00:04:20.670Z,3.73
2019-03-15T00:06:50.386Z,4.30
2019-03-15T00:09:19.644Z,3.97
2019-03-15T00:11:48.829Z,5.03
2019-03-15T00:14:18.041Z,5.27
2019-03-15T00:16:47.231Z,7.17
2019-03-15T00:19:16.340Z,6.00
2019-03-15T00:21:45.539Z,6.97
2019-03-15T00:24:14.656Z,7.60
2019-03-15T00:26:43.854Z,7.80
2019-03-15T00:29:12.941Z,7.23
2019-03-15T00:31:42.126Z,6.83
2019-03-15T00:34:11.224Z,7.57
2019-03-15T00:36:40.405Z,7.43
2019-03-15T00:39:09.721Z,6.87
2019-03-15T00:41:38.911Z,6.33
2019-03-15T00:44:08.028Z,7.13
2019-03-15T00:46:37.187Z,6.27
2019-03-15T00:49:06.405Z,6.40
2019-03-15T00:51:35.590Z,6.40
2019-03-15T00:54:04.825Z,6.00
2019-03-15T00:56:34.003Z,5.73
2019-03-15T00:59:03.126Z,6.07
2019-03-15T01:01:32.312Z,6.70
2019-03-15T01:04:01.430Z,7.03
2019-03-15T01:06:30.609Z,4.93
2019-03-15T01:08:59.820Z,5.37
2019-03-15T01:11:29.013Z,5.20
2019-03-15T01:13:58.132Z,4.83
2019-03-15T01:16:27.324Z,5.17
2019-03-15T01:18:56.448Z,4.60
2019-03-15T01:21:25.622Z,5.57
2019-03-15T01:23:54.735Z,5.27
2019-03-15T01:26:23.906Z,5.10
2019-03-15T01:28:53.015Z,6.07
2019-03-15T01:31:22.129Z,5.20
2019-03-15T01:33:51.309Z,5.07
2019-03-15T01:36:20.533Z,5.13
2019-03-15T01:38:49.717Z,5.17
2019-03-15T01:41:18.830Z,6.13
2019-03-15T01:43:47.996Z,5.60
2019-03-15T01:46:17.114Z,5.53
2019-03-15T01:48:46.294Z,5.33
2019-03-15T01:51:15.499Z,5.90
2019-03-15T01:53:44.708Z,5.20
2019-03-15T01:56:13.807Z,4.97
2019-03-15T01:58:43.084Z,4.83
2019-03-15T02:01:12.295Z,5.33
2019-03-15T02:03:41.471Z,4.77
2019-03-15T02:06:10.584Z,4.57
2019-03-15T02:08:39.869Z,4.83
2019-03-15T02:11:09.084Z,5.07
2019-03-15T02:13:38.357Z,5.60
2019-03-15T02:16:07.609Z,4.50
2019-03-15T02:18:37.745Z,5.30
2019-03-15T02:21:06.867Z,5.27
2019-03-15T02:23:36.043Z,4.80
2019-03-15T02:26:05.360Z,4.73
2019-03-15T02:28:34.540Z,4.57
2019-03-15T02:31:03.654Z,5.13
2019-03-15T02:33:33.548Z,4.63
2019-03-15T02:36:02.959Z,4.90
2019-03-15T02:38:32.232Z,4.60
2019-03-15T02:41:01.349Z,4.30
2019-03-15T02:43:30.537Z,4.43
2019-03-15T02:45:59.646Z,4.50
2019-03-15T02:48:28.923Z,4.57
2019-03-15T02:50:58.037Z,4.47
2019-03-15T02:53:27.326Z,7.43
2019-03-15T02:55:56.541Z,7.13
2019-03-15T02:58:25.726Z,5.00
2019-03-15T03:00:54.854Z,4.00
2019-03-15T03:03:24.023Z,4.40
2019-03-15T03:05:53.142Z,4.60
2019-03-15T03:08:22.312Z,4.93
2019-03-15T03:10:51.429Z,5.00
2019-03-15T03:13:20.613Z,5.43
2019-03-15T03:15:49.733Z,5.30
2019-03-15T03:18:18.901Z,5.07
2019-03-15T03:20:48.373Z,4.67
2019-03-15T03:23:17.893Z,5.23
2019-03-15T03:25:47.109Z,4.67
2019-03-15T03:28:16.376Z,5.60
2019-03-15T03:30:46.778Z,6.17
2019-03-15T03:33:16.376Z,5.17
2019-03-15T03:35:45.511Z,4.80
2019-03-15T03:38:14.788Z,4.83
2019-03-15T03:40:43.999Z,4.87
2019-03-15T03:43:13.177Z,4.83
2019-03-15T03:45:42.297Z,4.50
2019-03-15T03:48:11.660Z,4.43
2019-03-15T03:50:40.876Z,5.90
2019-03-15T03:53:10.158Z,4.30
2019-03-15T03:55:39.615Z,4.13
2019-03-15T03:58:10.464Z,4.70
2019-03-15T04:00:39.790Z,4.73
2019-03-15T04:03:09.274Z,4.90
2019-03-15T04:05:38.591Z,4.80
2019-03-15T04:08:07.876Z,5.23
2019-03-15T04:10:37.304Z,4.97
2019-03-15T04:13:06.598Z,6.00
2019-03-15T04:15:35.915Z,5.17
2019-03-15T04:18:06.653Z,5.93
2019-03-15T04:20:36.098Z,4.93
2019-03-15T04:23:05.353Z,5.53
2019-03-15T04:25:34.591Z,5.00
2019-03-15T04:28:03.711Z,4.93
2019-03-15T04:30:32.875Z,5.83
2019-03-15T04:33:01.997Z,4.97
2019-03-15T04:35:31.496Z,5.10
2019-03-15T04:38:00.666Z,4.67
2019-03-15T04:40:29.898Z,4.37
2019-03-15T04:42:58.990Z,4.97
2019-03-15T04:45:28.174Z,4.70
2019-03-15T04:47:57.284Z,4.87
2019-03-15T04:50:26.456Z,6.10
2019-03-15T04:52:55.664Z,5.10
2019-03-15T04:55:24.854Z,5.20
2019-03-15T04:57:53.958Z,5.33
2019-03-15T05:00:23.274Z,4.87
2019-03-15T05:02:52.574Z,4.97
2019-03-15T05:05:21.762Z,6.40
2019-03-15T05:07:50.871Z,5.37
2019-03-15T05:10:20.073Z,5.53
2019-03-15T05:12:49.179Z,5.27
2019-03-15T05:15:18.363Z,6.30
2019-03-15T05:17:47.571Z,5.90
2019-03-15T05:20:16.978Z,5.57
2019-03-15T05:22:46.070Z,5.13
2019-03-15T05:25:15.262Z,7.20
2019-03-15T05:27:44.375Z,5.93
2019-03-15T05:30:13.781Z,5.10
2019-03-15T05:32:42.880Z,5.07
2019-03-15T05:35:12.268Z,6.17
2019-03-15T05:37:41.368Z,7.17
2019-03-15T05:40:10.646Z,5.53
2019-03-15T05:42:39.763Z,6.07
2019-03-15T05:45:10.913Z,4.80
2019-03-15T05:47:40.032Z,5.30
2019-03-15T05:50:12.267Z,5.57
2019-03-15T05:52:41.380Z,5.37
2019-03-15T05:55:12.856Z,6.20
2019-03-15T05:57:42.168Z,5.00
2019-03-15T06:00:14.319Z,5.70
2019-03-15T06:02:43.432Z,5.20
2019-03-15T06:05:12.907Z,4.97
2019-03-15T06:07:42.055Z,4.93
2019-03-15T06:10:12.612Z,5.33
2019-03-15T06:12:41.831Z,5.60
2019-03-15T06:15:11.820Z,5.27
2019-03-15T06:17:41.043Z,5.70
2019-03-15T06:20:12.189Z,5.40
2019-03-15T06:22:41.406Z,5.60
2019-03-15T06:25:11.703Z,6.10
2019-03-15T06:27:40.907Z,6.50
2019-03-15T06:30:14.958Z,5.37
2019-03-15T06:32:44.078Z,6.00
2019-03-15T06:35:13.950Z,5.97
2019-03-15T06:37:43.060Z,6.03
2019-03-15T06:40:13.823Z,5.93
2019-03-15T06:42:43.325Z,5.63
2019-03-15T06:45:14.232Z,5.50
2019-03-15T06:47:55.042Z,5.83
2019-03-15T06:50:24.315Z,5.13
2019-03-15T06:52:53.534Z,5.43
2019-03-15T06:55:22.811Z,4.93
2019-03-15T06:57:51.928Z,4.90
2019-03-15T07:00:21.211Z,5.27
2019-03-15T07:02:50.323Z,5.87
2019-03-15T07:05:20.662Z,5.40
2019-03-15T07:07:50.130Z,4.90
2019-03-15T07:10:19.408Z,5.37
2019-03-15T07:12:48.618Z,5.77
2019-03-15T07:15:18.002Z,5.07
2019-03-15T07:17:47.102Z,5.87
2019-03-15T07:20:17.390Z,4.40
2019-03-15T07:22:46.509Z,5.10
2019-03-15T07:25:15.887Z,5.50
2019-03-15T07:27:45.007Z,4.27
2019-03-15T07:30:15.483Z,5.10
2019-03-15T07:32:44.596Z,3.97
2019-03-15T07:35:13.985Z,4.00
2019-03-15T07:37:45.562Z,4.60
2019-03-15T07:40:14.428Z,4.63
2019-03-15T07:42:43.735Z,4.80
2019-03-15T07:45:14.704Z,3.40
2019-03-15T07:47:43.910Z,3.00
2019-03-15T07:50:14.741Z,3.10
2019-03-15T07:52:44.036Z,3.87
2019-03-15T07:55:13.397Z,3.40
2019-03-15T07:57:42.520Z,2.80
2019-03-15T08:00:16.178Z,3.30
2019-03-15T08:02:45.278Z,3.40
2019-03-15T08:05:14.661Z,3.13
2019-03-15T08:07:45.638Z,3.73
2019-03-15T08:10:14.751Z,3.13
2019-03-15T08:12:45.322Z,3.00
2019-03-15T08:15:15.207Z,2.20
2019-03-15T08:17:44.525Z,2.37
2019-03-15T08:20:15.133Z,2.17
2019-03-15T08:22:44.423Z,1.83
2019-03-15T08:25:13.632Z,1.70
2019-03-15T08:27:42.910Z,2.17
2019-03-15T08:30:14.195Z,1.83
2019-03-15T08:32:44.150Z,2.17
2019-03-15T08:35:14.067Z,1.97
2019-03-15T08:37:43.292Z,1.30
2019-03-15T08:40:15.826Z,1.60
2019-03-15T08:42:45.204Z,1.77
2019-03-15T08:45:23.620Z,1.50
2019-03-15T08:47:53.003Z,1.83
2019-03-15T08:50:24.562Z,1.63
2019-03-15T08:52:54.115Z,1.70
2019-03-15T08:55:23.643Z,3.00
2019-03-15T08:57:52.814Z,1.80
2019-03-15T09:00:22.223Z,1.60
2019-03-15T09:02:51.518Z,1.80
2019-03-15T09:05:20.724Z,1.47
2019-03-15T09:07:50.112Z,3.57
2019-03-15T09:10:24.221Z,1.50
2019-03-15T09:12:51.158Z,1.33
2019-03-15T09:15:20.464Z,1.40
2019-03-15T09:17:49.736Z,1.40
2019-03-15T09:20:19.062Z,1.50
2019-03-15T09:22:48.334Z,1.67
2019-03-15T09:25:21.057Z,1.70
2019-03-15T09:27:50.686Z,1.70
2019-03-15T09:30:24.148Z,1.70
2019-03-15T09:32:50.955Z,1.40
2019-03-15T09:35:20.050Z,1.40
2019-03-15T09:37:49.318Z,1.47
2019-03-15T09:40:18.532Z,1.33
2019-03-15T09:42:47.811Z,1.77
2019-03-15T09:48:16.628Z,1.60
2019-03-15T09:50:51.312Z,1.73
2019-03-15T09:53:16.462Z,1.30
2019-03-15T09:55:45.694Z,1.60
2019-03-15T09:58:14.877Z,1.70
2019-03-15T10:00:44.094Z,1.30
2019-03-15T10:03:22.101Z,1.90
2019-03-15T10:05:44.238Z,1.30
2019-03-15T10:08:13.427Z,2.00
2019-03-15T10:10:42.637Z,1.80
2019-03-15T10:13:11.804Z,2.10
2019-03-15T10:15:41.233Z,1.80
2019-03-15T10:18:10.522Z,1.50
2019-03-15T10:20:39.613Z,2.07
2019-03-15T10:23:08.914Z,2.00
2019-03-15T10:25:46.611Z,2.43
2019-03-15T10:28:08.847Z,1.77
2019-03-15T10:30:37.964Z,1.70
2019-03-15T10:33:07.344Z,2.03
2019-03-15T10:35:36.564Z,1.87
2019-03-15T10:38:05.738Z,1.90
2019-03-15T10:40:34.954Z,1.90
2019-03-15T10:43:04.142Z,1.50
2019-03-15T10:45:33.459Z,1.90
2019-03-15T10:48:02.649Z,1.70
2019-03-15T10:50:31.942Z,1.70
2019-03-15T10:53:01.117Z,1.73
2019-03-15T10:55:30.244Z,2.00
2019-03-15T10:57:59.596Z,1.93
2019-03-15T11:00:29.416Z,2.30
2019-03-15T11:02:58.587Z,2.00
2019-03-15T11:05:27.803Z,2.30
2019-03-15T11:07:57.194Z,2.20
2019-03-15T11:10:26.418Z,1.80
2019-03-15T11:12:55.622Z,2.00
2019-03-15T11:15:24.734Z,2.10
2019-03-15T11:17:53.904Z,1.83
2019-03-15T11:20:23.115Z,1.90
2019-03-15T11:22:52.400Z,2.10
2019-03-15T11:25:21.511Z,1.93
2019-03-15T11:27:50.694Z,1.80
2019-03-15T11:30:20.006Z,1.70
2019-03-15T11:32:49.189Z,1.90
2019-03-15T11:35:21.122Z,1.70
2019-03-15T11:37:49.051Z,1.80
2019-03-15T11:40:19.423Z,2.30
2019-03-15T11:42:48.930Z,1.87
2019-03-15T11:45:18.129Z,2.10
2019-03-15T11:48:02.542Z,1.60
2019-03-15T11:50:22.096Z,1.77
2019-03-15T11:52:51.389Z,1.70
2019-03-15T11:55:20.602Z,1.77
2019-03-15T11:57:49.896Z,1.70
2019-03-15T12:00:19.800Z,1.80
2019-03-15T12:02:49.063Z,1.60
2019-03-15T12:05:18.220Z,1.20
2019-03-15T12:07:47.371Z,1.40
2019-03-15T12:10:17.377Z,1.30
2019-03-15T12:12:46.680Z,1.50
2019-03-15T12:15:17.065Z,1.30
2019-03-15T12:17:46.345Z,1.13
2019-03-15T12:20:15.655Z,1.27
2019-03-15T12:22:44.821Z,1.20
2019-03-15T12:25:14.146Z,1.33
2019-03-15T12:27:43.529Z,1.20
2019-03-15T12:30:18.804Z,1.00
2019-03-15T12:32:47.975Z,1.10
2019-03-15T12:35:17.392Z,1.20
2019-03-15T12:37:46.564Z,1.00
2019-03-15T12:40:17.738Z,1.00
2019-03-15T12:42:47.025Z,1.10
2019-03-15T12:45:16.629Z,0.80
2019-03-15T12:47:45.822Z,1.17
2019-03-15T12:50:15.778Z,0.83
2019-03-15T12:52:48.985Z,0.90
2019-03-15T12:55:16.280Z,1.00
2019-03-15T12:57:48.778Z,0.90
2019-03-15T13:00:20.677Z,1.00
2019-03-15T13:02:50.060Z,1.00
2019-03-15T13:05:19.174Z,0.97
2019-03-15T13:07:48.279Z,0.80
2019-03-15T13:10:23.986Z,0.80
2019-03-15T13:12:53.196Z,1.00
2019-03-15T13:15:22.456Z,0.70
2019-03-15T13:17:51.566Z,0.90
2019-03-15T13:20:20.953Z,0.80
2019-03-15T13:22:50.053Z,0.60
2019-03-15T13:25:19.338Z,0.70
2019-03-15T13:27:48.554Z,0.80
2019-03-15T13:30:18.254Z,0.70
2019-03-15T13:32:47.369Z,0.60
2019-03-15T13:35:16.670Z,0.67
2019-03-15T13:37:46.054Z,0.80
2019-03-15T13:40:19.353Z,0.80
2019-03-15T13:42:48.471Z,0.73
2019-03-15T13:45:18.373Z,0.73
2019-03-15T13:47:47.592Z,0.70
2019-03-15T13:50:21.237Z,0.70
2019-03-15T13:52:50.453Z,0.70
2019-03-15T13:55:19.830Z,0.77
2019-03-15T13:57:48.932Z,0.70
2019-03-15T14:00:21.119Z,0.70
2019-03-15T14:02:50.529Z,0.80
2019-03-15T14:05:19.809Z,0.70
2019-03-15T14:07:49.024Z,0.80
2019-03-15T14:10:18.496Z,1.30
2019-03-15T14:12:47.718Z,0.80
2019-03-15T14:15:19.245Z,0.90
2019-03-15T14:17:49.960Z,1.00
2019-03-15T14:20:19.149Z,1.00
2019-03-15T14:22:48.375Z,0.83
2019-03-15T14:25:27.694Z,0.87
2019-03-15T14:27:56.911Z,0.87
2019-03-15T14:30:26.191Z,1.07
2019-03-15T14:32:55.511Z,0.83
2019-03-15T14:35:24.665Z,1.13
2019-03-15T14:37:53.998Z,1.10
2019-03-15T14:40:23.674Z,4.47
2019-03-15T14:42:52.918Z,2.23
2019-03-15T14:45:22.342Z,0.80
2019-03-15T14:47:51.517Z,0.80
2019-03-15T14:50:20.796Z,1.43
2019-03-15T14:52:50.014Z,2.63
2019-03-15T14:55:19.282Z,1.30
2019-03-15T14:57:52.476Z,2.80
2019-03-15T15:00:20.336Z,1.57
2019-03-15T15:02:50.337Z,2.00
2019-03-15T15:05:19.622Z,1.80
2019-03-15T15:07:48.727Z,1.43
2019-03-15T15:10:18.511Z,1.40
2019-03-15T15:12:47.714Z,1.30
2019-03-15T15:15:18.950Z,1.30
2019-03-15T15:17:48.064Z,1.27
2019-03-15T15:20:17.543Z,1.23
2019-03-15T15:22:46.650Z,1.20
2019-03-15T15:25:19.027Z,1.30
2019-03-15T15:27:48.150Z,1.20
2019-03-15T15:30:18.330Z,1.30
2019-03-15T15:32:47.640Z,1.40
2019-03-15T15:35:16.903Z,1.27
2019-03-15T15:37:46.134Z,1.20
2019-03-15T15:40:19.247Z,1.30
2019-03-15T15:42:48.528Z,1.10
2019-03-15T15:45:17.840Z,1.23
2019-03-15T15:47:46.945Z,0.97
2019-03-15T15:50:16.628Z,1.07
2019-03-15T15:52:45.847Z,1.00
2019-03-15T15:55:16.161Z,1.07
2019-03-15T15:57:45.266Z,1.40
2019-03-15T16:00:18.380Z,1.00
2019-03-15T16:02:47.752Z,0.90
2019-03-15T16:05:17.137Z,0.80
2019-03-15T16:07:46.356Z,0.80
2019-03-15T16:10:18.151Z,1.10
2019-03-15T16:12:47.400Z,1.10
2019-03-15T16:15:17.775Z,2.53
2019-03-15T16:17:46.990Z,0.90
2019-03-15T16:20:16.360Z,7.17
2019-03-15T16:22:45.559Z,1.20
2019-03-15T16:25:14.741Z,0.97
2019-03-15T16:27:43.846Z,1.10
2019-03-15T16:30:15.314Z,0.90
2019-03-15T16:32:44.538Z,0.80
2019-03-15T16:35:14.793Z,1.00
2019-03-15T16:37:44.112Z,1.00
2019-03-15T16:40:14.505Z,0.90
2019-03-15T16:42:49.997Z,0.90
2019-03-15T16:45:24.517Z,0.87
2019-03-15T16:47:53.835Z,0.90
2019-03-15T16:50:23.018Z,0.87
2019-03-15T16:52:52.132Z,1.03
2019-03-15T16:55:21.341Z,0.80
2019-03-15T16:57:50.659Z,0.80
2019-03-15T17:00:20.134Z,0.90
2019-03-15T17:02:49.358Z,0.73
2019-03-15T17:05:18.640Z,0.80
2019-03-15T17:07:47.854Z,0.90
2019-03-15T17:10:18.532Z,0.90
2019-03-15T17:12:47.737Z,0.90
2019-03-15T17:15:19.485Z,0.73
2019-03-15T17:17:48.729Z,0.90
2019-03-15T17:20:17.998Z,0.97
2019-03-15T17:22:47.113Z,0.80
2019-03-15T17:25:16.386Z,1.07
2019-03-15T17:27:45.524Z,0.80
2019-03-15T17:30:18.678Z,1.20
2019-03-15T17:32:48.122Z,0.90
2019-03-15T17:35:20.331Z,1.00
2019-03-15T17:37:49.539Z,1.10
2019-03-15T17:40:19.714Z,0.80
2019-03-15T17:42:48.939Z,1.00
2019-03-15T17:45:18.354Z,1.17
2019-03-15T17:47:47.923Z,0.77
2019-03-15T17:50:21.004Z,1.00
2019-03-15T17:52:50.226Z,1.30
2019-03-15T17:55:20.144Z,0.90
2019-03-15T17:57:49.416Z,1.60
2019-03-15T18:00:28.495Z,6.57
2019-03-15T18:02:57.607Z,1.13
2019-03-15T18:05:26.743Z,1.50
2019-03-15T18:07:55.924Z,1.27
2019-03-15T18:10:25.037Z,1.13
2019-03-15T18:12:54.419Z,1.17
2019-03-15T18:15:23.533Z,0.90
2019-03-15T18:17:52.707Z,1.20
2019-03-15T18:20:21.914Z,1.00
2019-03-15T18:22:51.195Z,1.27
2019-03-15T18:25:20.309Z,1.00
2019-03-15T18:27:49.882Z,1.10
2019-03-15T18:30:19.087Z,1.30
2019-03-15T18:32:48.570Z,0.97
2019-03-15T18:35:17.672Z,1.10
2019-03-15T18:37:46.967Z,1.10
2019-03-15T18:40:17.866Z,1.17
2019-03-15T18:42:48.732Z,1.03
2019-03-15T18:45:19.936Z,1.10
2019-03-15T18:47:49.198Z,0.97
2019-03-15T18:50:21.697Z,1.50
2019-03-15T18:52:51.833Z,0.90
2019-03-15T18:55:23.809Z,0.90
2019-03-15T18:57:53.044Z,0.90
2019-03-15T19:00:23.656Z,1.10
2019-03-15T19:02:53.129Z,1.13
2019-03-15T19:05:22.369Z,0.97
2019-03-15T19:07:51.759Z,0.90
2019-03-15T19:10:20.953Z,0.90
2019-03-15T19:12:50.409Z,0.80
2019-03-15T19:15:22.846Z,1.00
2019-03-15T19:17:52.255Z,0.80
2019-03-15T19:20:21.356Z,0.90
2019-03-15T19:22:50.746Z,0.83
2019-03-15T19:25:20.095Z,0.90
2019-03-15T19:27:49.364Z,0.90
2019-03-15T19:30:19.488Z,0.70
2019-03-15T19:32:48.897Z,0.80
2019-03-15T19:35:18.325Z,0.80
2019-03-15T19:37:47.646Z,0.90
2019-03-15T19:40:20.674Z,0.80
2019-03-15T19:42:49.990Z,0.97
2019-03-15T19:45:19.200Z,0.93
2019-03-15T19:47:48.606Z,0.80
2019-03-15T19:50:21.668Z,0.90
2019-03-15T19:52:51.031Z,0.90
2019-03-15T19:55:20.154Z,0.90
2019-03-15T19:57:49.537Z,0.87
2019-03-15T20:00:22.583Z,0.70
2019-03-15T20:02:51.869Z,0.90
2019-03-15T20:05:21.000Z,0.80
2019-03-15T20:07:50.421Z,0.90
2019-03-15T20:10:20.116Z,0.90
2019-03-15T20:12:49.359Z,0.80
2019-03-15T20:15:18.768Z,0.77
2019-03-15T20:17:48.147Z,0.90
2019-03-15T20:20:18.463Z,0.73
2019-03-15T20:22:47.629Z,0.70
2019-03-15T20:25:18.935Z,0.63
2019-03-15T20:27:48.205Z,0.80
2019-03-15T20:30:26.011Z,0.67
2019-03-15T20:32:52.311Z,0.80
2019-03-15T20:35:21.508Z,0.80
2019-03-15T20:37:50.883Z,0.70
2019-03-15T20:40:20.308Z,1.00
2019-03-15T20:42:49.585Z,1.00
2019-03-15T20:45:29.512Z,0.90
2019-03-15T20:47:58.784Z,0.90
2019-03-15T20:50:27.898Z,0.80
2019-03-15T20:53:07.866Z,0.70
2019-03-15T20:55:28.965Z,1.00
2019-03-15T20:57:58.520Z,0.80
2019-03-15T21:00:35.545Z,1.00
2019-03-15T21:02:58.664Z,1.13
2019-03-15T21:05:27.873Z,0.77
2019-03-15T21:07:57.246Z,0.90
2019-03-15T21:10:26.455Z,0.90
2019-03-15T21:12:55.732Z,0.90
2019-03-15T21:15:24.948Z,0.97
2019-03-15T21:17:54.122Z,0.90
2019-03-15T21:20:23.224Z,1.03
2019-03-15T21:22:52.605Z,0.80
2019-03-15T21:25:21.811Z,1.00
2019-03-15T21:27:54.222Z,1.00
2019-03-15T21:30:26.650Z,1.20
2019-03-15T21:32:55.937Z,0.90
2019-03-15T21:35:25.034Z,1.30
2019-03-15T21:37:54.208Z,1.00
2019-03-15T21:40:23.727Z,1.10
2019-03-15T21:42:53.004Z,1.10
2019-03-15T21:45:22.101Z,1.30
2019-03-15T21:47:51.387Z,1.20
2019-03-15T21:50:22.213Z,1.10
2019-03-15T21:52:51.502Z,1.10
2019-03-15T21:55:20.827Z,1.00
2019-03-15T21:57:50.096Z,1.20
2019-03-15T22:00:20.510Z,1.23
2019-03-15T22:02:49.783Z,1.20
2019-03-15T22:05:18.887Z,1.40
2019-03-15T22:07:48.096Z,1.30
2019-03-15T22:10:17.972Z,1.07
2019-03-15T22:12:47.086Z,1.60
2019-03-15T22:15:16.665Z,1.30
2019-03-15T22:17:45.793Z,1.13
2019-03-15T22:20:16.550Z,1.27
2019-03-15T22:22:45.767Z,0.90
2019-03-15T22:25:14.950Z,1.00
2019-03-15T22:27:44.271Z,1.10
2019-03-15T22:30:14.737Z,1.10
2019-03-15T22:32:43.955Z,1.30
2019-03-15T22:35:13.421Z,1.33
2019-03-15T22:37:42.537Z,1.10
2019-03-15T22:40:13.879Z,1.10
2019-03-15T22:42:43.024Z,1.00
2019-03-15T22:45:13.412Z,1.00
2019-03-15T22:47:42.711Z,1.00
2019-03-15T22:50:12.983Z,1.13
2019-03-15T22:52:42.187Z,1.40
2019-03-15T22:55:12.081Z,1.10
2019-03-15T22:57:41.416Z,1.20
2019-03-15T23:00:18.900Z,1.27
2019-03-15T23:02:48.252Z,1.70
2019-03-15T23:05:17.807Z,0.90
2019-03-15T23:07:46.918Z,1.00
2019-03-15T23:10:16.197Z,1.30
2019-03-15T23:12:45.419Z,1.10
2019-03-15T23:15:14.672Z,1.20
2019-03-15T23:17:43.794Z,0.90
2019-03-15T23:20:14.550Z,1.00
2019-03-15T23:22:43.869Z,0.93
2019-03-15T23:25:13.131Z,0.97
2019-03-15T23:27:42.370Z,0.90
2019-03-15T23:30:14.560Z,1.10
2019-03-15T23:32:43.868Z,1.00
2019-03-15T23:35:13.255Z,0.90
2019-03-15T23:37:42.364Z,1.00
2019-03-15T23:40:13.797Z,1.00
2019-03-15T23:42:43.096Z,0.90
2019-03-15T23:45:12.491Z,0.70
2019-03-15T23:47:41.698Z,0.87
2019-03-15T23:50:12.785Z,1.17
2019-03-15T23:52:41.897Z,1.00
2019-03-15T23:55:11.272Z,0.70
2019-03-15T23:57:40.484Z,0.80
